Time;durP1;ratioP1;P1;durP2;ratioP2;P2;SDS_P1;SDS_P2;PMS_P1;PMS_P2;Temp;Humidity;BMP_temperature;BMP_pressure;BME280_temperature;BME280_humidity;BME280_pressure;Samples;Min_cycle;Max_cycle;Signal;HPM_P1;HPM_P2
2022/06/17 00:01:30;;;;;;;19.63;14.27;;;;;;;17.81;61.94;101969.88;4915444;28;119698;-79
2022/06/17 00:03:57;;;;;;;18.73;14.77;;;;;;;17.74;61.86;101978.53;4918621;28;119023;-80
2022/06/17 00:06:26;;;;;;;20.08;15.70;;;;;;;17.74;62.06;101990.41;4930205;28;121765;-79
2022/06/17 00:08:53;;;;;;;21.60;16.52;;;;;;;17.71;62.12;101977.47;4896105;28;120787;-79
2022/06/17 00:11:39;;;;;;;24.80;17.27;;;;;;;17.66;62.46;101974.53;4902026;28;119788;-79
2022/06/17 00:14:12;;;;;;;20.77;16.83;;;;;;;17.68;62.55;101986.72;4913348;28;121138;-79
2022/06/17 00:16:40;;;;;;;19.50;13.98;;;;;;;17.61;62.09;101961.28;4914723;28;120118;-79
2022/06/17 00:19:06;;;;;;;22.58;16.38;;;;;;;17.62;62.08;101960.81;4913952;28;119493;-78
2022/06/17 00:21:43;;;;;;;19.15;16.60;;;;;;;17.55;62.10;101952.84;4930172;28;120202;-78
2022/06/17 00:24:22;;;;;;;26.88;20.05;;;;;;;17.54;62.37;101954.09;4914077;28;119259;-79
2022/06/17 00:26:48;;;;;;;26.55;21.05;;;;;;;17.44;62.57;101945.00;4902183;28;119811;-80
2022/06/17 00:29:17;;;;;;;27.38;22.02;;;;;;;17.48;62.94;101953.16;4897368;28;120704;-79
2022/06/17 00:31:43;;;;;;;29.40;22.92;;;;;;;17.47;62.86;101946.06;4914531;28;119623;-79
2022/06/17 00:34:09;;;;;;;30.40;22.00;;;;;;;17.42;62.82;101944.72;4913429;28;119292;-79
2022/06/17 00:36:36;;;;;;;30.02;22.60;;;;;;;17.45;62.97;101951.31;4912946;28;120395;-78
2022/06/17 00:39:09;;;;;;;25.58;20.98;;;;;;;17.44;62.95;101958.88;4897473;28;119714;-79
2022/06/17 00:41:39;;;;;;;24.85;20.30;;;;;;;17.42;62.67;101964.13;4913397;28;119904;-79
2022/06/17 00:44:38;;;;;;;22.92;19.80;;;;;;;17.41;62.67;101972.91;4912207;28;119735;-79
2022/06/17 00:47:32;;;;;;;29.38;21.92;;;;;;;17.37;62.66;101975.09;4915336;28;120037;-80
2022/06/17 00:50:16;;;;;;;29.45;22.35;;;;;;;17.35;63.02;101972.00;4913368;28;120445;-78
2022/06/17 00:53:02;;;;;;;26.15;21.42;;;;;;;17.33;63.22;101966.16;4913271;28;119721;-78
2022/06/17 00:55:42;;;;;;;33.88;23.17;;;;;;;17.30;63.35;101953.22;4911768;28;119242;-78
2022/06/17 00:58:21;;;;;;;28.60;20.60;;;;;;;17.32;62.78;101956.31;4912742;28;120173;-78
2022/06/17 01:00:52;;;;;;;22.20;19.13;;;;;;;17.32;62.48;101961.84;4913372;28;119740;-77
2022/06/17 01:03:28;;;;;;;29.35;19.70;;;;;;;17.29;62.57;101963.56;4912229;28;119876;-78
2022/06/17 01:06:17;;;;;;;32.97;26.65;;;;;;;17.23;62.67;101964.63;4910570;28;120141;-78
2022/06/17 01:11:42;;;;;;;35.22;29.17;;;;;;;17.11;63.30;101953.28;4911637;28;120222;-79
2022/06/17 01:14:14;;;;;;;36.58;30.05;;;;;;;17.21;63.44;101964.31;4914189;28;120657;-78
2022/06/17 01:16:43;;;;;;;37.95;29.98;;;;;;;17.21;63.47;101964.31;4911802;28;119668;-79
2022/06/17 01:19:35;;;;;;;35.28;28.50;;;;;;;17.15;63.32;101959.41;4895221;28;121123;-80
2022/06/17 01:22:26;;;;;;;38.55;30.58;;;;;;;17.18;63.25;101964.03;4913076;28;119368;-78
2022/06/17 01:25:19;;;;;;;39.65;31.77;;;;;;;17.17;63.71;101968.03;4912513;28;119539;-77
2022/06/17 01:28:17;;;;;;;30.00;24.20;;;;;;;17.17;63.64;101972.81;4890045;28;119991;-79
2022/06/17 01:30:54;;;;;;;22.52;18.83;;;;;;;17.15;62.59;101980.81;4897027;28;119679;-78
2022/06/17 01:33:25;;;;;;;22.02;17.35;;;;;;;17.10;61.96;101978.69;4912698;28;120346;-78
2022/06/17 01:35:54;;;;;;;24.15;19.60;;;;;;;17.01;61.35;101968.34;4912069;28;122418;-79
2022/06/17 01:38:22;;;;;;;24.40;19.40;;;;;;;16.97;61.55;101964.97;4900883;28;120001;-78
2022/06/17 01:40:49;;;;;;;29.40;23.20;;;;;;;16.94;61.94;101981.78;4912600;28;120114;-78
2022/06/17 01:43:19;;;;;;;26.33;21.85;;;;;;;16.90;62.30;101976.41;4929068;28;119758;-78
2022/06/17 01:45:55;;;;;;;25.42;21.83;;;;;;;16.87;62.26;101982.88;4913058;28;119461;-79
2022/06/17 01:48:25;;;;;;;28.05;21.98;;;;;;;16.82;62.28;101981.50;4912419;28;119777;-77
2022/06/17 01:50:56;;;;;;;26.17;22.55;;;;;;;16.81;62.33;101990.25;4896825;28;119712;-78
2022/06/17 01:53:29;;;;;;;32.17;26.30;;;;;;;16.79;62.78;101987.94;4912079;28;119368;-78
2022/06/17 01:56:04;;;;;;;42.17;33.47;;;;;;;16.78;62.93;101985.63;4926457;28;120271;-78
2022/06/17 01:58:41;;;;;;;46.80;34.88;;;;;;;16.80;63.88;101983.94;4915240;28;119450;-78
2022/06/17 02:01:10;;;;;;;46.97;35.10;;;;;;;16.78;64.11;101977.31;4894304;28;121375;-79
2022/06/17 02:03:44;;;;;;;45.25;35.40;;;;;;;16.82;64.32;101980.72;4910967;28;119753;-77
2022/06/17 02:06:21;;;;;;;47.10;36.83;;;;;;;16.87;64.24;101991.94;4911191;28;119361;-79
2022/06/17 02:08:49;;;;;;;31.77;25.02;;;;;;;16.86;63.74;101992.41;4894766;28;120959;-78
2022/06/17 02:11:18;;;;;;;30.77;24.17;;;;;;;16.84;62.99;101992.09;4896041;28;119840;-76
2022/06/17 02:13:53;;;;;;;30.65;23.60;;;;;;;16.77;62.29;101984.84;4912644;28;119795;-79
2022/06/17 02:16:52;;;;;;;31.27;25.88;;;;;;;16.77;62.52;101989.63;4896271;28;121675;-79
2022/06/17 02:20:10;;;;;;;32.83;24.63;;;;;;;16.77;62.64;101992.41;4822937;29;119738;-77
2022/06/17 02:22:37;;;;;;;33.80;27.60;;;;;;;16.72;62.25;101981.94;4839047;29;119550;-79
2022/06/17 02:25:09;;;;;;;33.50;27.98;;;;;;;16.71;62.25;101994.25;4834758;29;120186;-77
2022/06/17 02:27:36;;;;;;;37.75;28.33;;;;;;;16.67;62.52;101982.56;4835375;29;119771;-77
2022/06/17 02:30:04;;;;;;;36.00;28.48;;;;;;;16.66;62.38;101983.75;4834776;29;121562;-79
2022/06/17 02:32:34;;;;;;;38.03;30.63;;;;;;;16.66;62.79;101983.75;4837232;29;119530;-79
2022/06/17 02:35:15;;;;;;;45.63;35.22;;;;;;;16.66;63.02;101989.28;4838654;29;119675;-79
2022/06/17 02:37:41;;;;;;;39.97;32.95;;;;;;;16.64;63.27;101986.22;4837365;29;119990;-78
2022/06/17 02:40:22;;;;;;;38.55;33.00;;;;;;;16.62;63.47;101989.44;4836881;29;119572;-79
2022/06/17 02:42:48;;;;;;;38.63;32.17;;;;;;;16.58;63.25;101989.59;4836942;29;119526;-77
2022/06/17 02:45:17;;;;;;;54.22;37.05;;;;;;;16.54;63.29;101988.97;4839539;29;120267;-78
2022/06/17 02:47:45;;;;;;;67.93;39.22;;;;;;;16.47;63.39;101994.03;4835690;29;119907;-77
2022/06/17 02:50:18;;;;;;;47.28;39.03;;;;;;;16.45;64.04;101996.50;4820663;29;120706;-78
2022/06/17 02:52:46;;;;;;;46.80;39.72;;;;;;;16.44;64.30;101994.97;4838103;29;120053;-79
2022/06/17 02:55:24;;;;;;;46.13;39.75;;;;;;;16.43;64.54;101988.66;4894803;28;121167;-77
2022/06/17 02:57:52;;;;;;;51.28;41.67;;;;;;;16.49;64.84;101994.34;4898908;28;122108;-78
2022/06/17 03:00:20;;;;;;;50.90;42.13;;;;;;;16.47;64.87;101982.97;4899430;28;120462;-79
2022/06/17 03:02:54;;;;;;;52.03;41.90;;;;;;;16.46;65.61;101976.66;4915390;28;119449;-79
2022/06/17 03:05:32;;;;;;;63.97;43.60;;;;;;;16.58;65.31;101986.06;4914277;28;119604;-79
2022/06/17 03:07:59;;;;;;;63.50;45.25;;;;;;;16.61;65.52;101987.91;4919578;28;119700;-79
2022/06/17 03:10:34;;;;;;;51.05;42.25;;;;;;;16.58;65.57;101967.44;4914945;28;119732;-78
2022/06/17 03:13:10;;;;;;;53.67;42.35;;;;;;;16.67;65.90;101974.25;4915300;28;119382;-77
2022/06/17 03:15:39;;;;;;;62.80;40.78;;;;;;;16.67;65.78;101968.69;4912440;28;119827;-78
2022/06/17 03:18:06;;;;;;;49.58;41.50;;;;;;;16.73;65.69;101972.38;4914641;28;119749;-78
2022/06/17 03:20:36;;;;;;;46.58;39.00;;;;;;;16.72;65.82;101971.63;4916506;28;119418;-78
2022/06/17 03:23:07;;;;;;;46.42;40.03;;;;;;;16.77;65.94;101978.53;4915374;28;119375;-79
2022/06/17 03:25:45;;;;;;;48.10;41.53;;;;;;;16.79;65.79;101987.16;4914193;28;119956;-78
2022/06/17 03:28:45;;;;;;;59.92;41.65;;;;;;;16.81;65.59;101985.50;4897174;28;119485;-79
2022/06/17 03:31:40;;;;;;;51.80;42.17;;;;;;;16.83;65.79;101976.72;4919994;28;119599;-78
2022/06/17 03:34:13;;;;;;;47.53;40.78;;;;;;;16.85;66.03;101975.00;4914502;28;119594;-79
2022/06/17 03:36:45;;;;;;;50.40;41.45;;;;;;;16.87;66.02;101966.22;4914424;28;119909;-78
2022/06/17 03:39:24;;;;;;;46.22;39.20;;;;;;;16.90;66.08;101972.84;4897968;28;123199;-78
2022/06/17 03:42:02;;;;;;;45.08;37.28;;;;;;;16.92;65.88;101962.06;4914027;28;120137;-78
2022/06/17 03:44:35;;;;;;;51.03;37.97;;;;;;;16.89;65.83;101955.47;4912397;28;120410;-77
2022/06/17 03:47:20;;;;;;;46.20;37.35;;;;;;;16.91;65.96;101961.31;4912523;28;120012;-78
2022/06/17 03:49:54;;;;;;;47.08;36.95;;;;;;;17.01;65.85;101964.81;4896232;28;119726;-77
2022/06/17 03:52:58;;;;;;;52.30;37.70;;;;;;;16.97;65.96;101955.91;4856003;28;119841;-79
2022/06/17 03:55:25;;;;;;;44.15;37.08;;;;;;;17.06;66.07;101958.69;4838139;28;119917;-78
2022/06/17 03:57:55;;;;;;;48.10;37.55;;;;;;;17.06;65.97;101959.44;4891300;28;120409;-78
2022/06/17 04:00:42;;;;;;;46.08;35.90;;;;;;;17.09;65.78;101960.50;4895863;28;122083;-77
2022/06/17 04:03:15;;;;;;;41.92;35.03;;;;;;;17.11;66.04;101958.81;4897818;28;119717;-78
2022/06/17 04:05:43;;;;;;;46.72;34.45;;;;;;;17.16;65.93;101958.19;4914216;28;119702;-77
2022/06/17 04:08:13;;;;;;;51.40;35.97;;;;;;;17.15;65.72;101964.97;4913794;28;119465;-78
2022/06/17 04:10:40;;;;;;;41.85;34.55;;;;;;;17.13;66.04;101961.88;4914423;28;120358;-79
2022/06/17 04:13:10;;;;;;;40.38;34.88;;;;;;;17.07;66.03;101960.22;4898378;28;120627;-79
2022/06/17 04:16:20;;;;;;;46.65;35.35;;;;;;;17.08;66.00;101954.19;4912007;28;119819;-78
2022/06/17 04:18:46;;;;;;;42.38;32.97;;;;;;;17.07;65.90;101966.53;4914443;28;119728;-78
2022/06/17 04:21:14;;;;;;;39.53;35.08;;;;;;;17.08;65.84;101975.63;4914133;28;119783;-78
2022/06/17 04:23:41;;;;;;;38.40;34.35;;;;;;;17.10;66.26;101973.91;4913564;28;120016;-78
2022/06/17 04:26:21;;;;;;;39.25;35.03;;;;;;;17.08;66.22;101973.59;4914318;28;119423;-78
2022/06/17 04:28:58;;;;;;;;;;;;;;;17.05;65.87;101965.47;4913553;28;119641;-78
2022/06/17 04:31:29;;;;;;;44.15;33.70;;;;;;;17.06;66.33;101972.53;4929963;28;119418;-79
2022/06/17 04:34:19;;;;;;;45.58;34.72;;;;;;;17.02;66.54;101961.59;4913617;28;119377;-79
2022/06/17 04:36:53;;;;;;;46.20;35.30;;;;;;;17.09;66.86;101966.81;4913115;28;119853;-79
2022/06/17 04:39:32;;;;;;;38.63;34.60;;;;;;;17.12;67.00;101965.91;4917436;28;119808;-78
2022/06/17 04:42:40;;;;;;;38.42;34.47;;;;;;;17.16;67.47;101966.50;4916737;28;119581;-78
2022/06/17 04:45:21;;;;;;;40.33;33.58;;;;;;;17.15;67.49;101955.88;4913359;28;119450;-79
2022/06/17 04:47:59;;;;;;;38.42;32.67;;;;;;;17.18;67.22;101955.72;4914064;28;120688;-78
2022/06/17 04:50:28;;;;;;;44.30;34.45;;;;;;;17.28;67.48;101962.03;4912635;28;120090;-79
2022/06/17 04:52:55;;;;;;;41.42;33.35;;;;;;;17.35;67.77;101966.47;4913068;28;119427;-79
2022/06/17 04:55:42;;;;;;;38.80;32.17;;;;;;;17.43;67.72;101962.88;4915242;28;119856;-79
2022/06/17 04:58:30;;;;;;;40.03;30.15;;;;;;;17.50;67.82;101956.22;4913007;28;120584;-78
2022/06/17 05:01:14;;;;;;;39.22;29.92;;;;;;;17.56;67.77;101959.94;4897488;28;119864;-79
2022/06/17 05:04:17;;;;;;;38.35;29.27;;;;;;;17.60;67.76;101954.97;4883368;28;121191;-78
2022/06/17 05:06:53;;;;;;;36.25;28.50;;;;;;;17.71;68.00;101960.81;4883865;28;120282;-77
2022/06/17 05:09:28;;;;;;;47.22;30.08;;;;;;;17.74;68.08;101950.78;4913723;28;119376;-80
2022/06/17 05:12:11;;;;;;;43.90;30.00;;;;;;;17.85;68.37;101950.28;4896631;28;120843;-78
2022/06/17 05:14:46;;;;;;;41.30;30.63;;;;;;;17.92;68.35;101958.25;4913252;28;119775;-78
2022/06/17 05:17:11;;;;;;;40.50;29.67;;;;;;;17.97;68.38;101960.38;4913640;28;119273;-78
2022/06/17 05:19:40;;;;;;;39.70;29.85;;;;;;;18.03;68.50;101958.50;4896658;28;121898;-79
2022/06/17 05:22:13;;;;;;;49.65;32.05;;;;;;;18.08;68.43;101966.19;4897306;28;119373;-80
2022/06/17 05:24:39;;;;;;;45.88;32.72;;;;;;;18.13;68.36;101975.88;4912862;28;119562;-78
2022/06/17 05:27:06;;;;;;;40.38;31.25;;;;;;;18.12;68.34;101972.34;4917602;28;119936;-79
2022/06/17 05:29:32;;;;;;;41.88;32.30;;;;;;;18.21;68.12;101980.59;4913221;28;119713;-78
2022/06/17 05:32:09;;;;;;;43.13;32.05;;;;;;;18.26;67.94;101971.63;4913163;28;119747;-78
2022/06/17 05:34:38;;;;;;;47.40;31.95;;;;;;;18.26;67.93;101977.19;4896722;28;119900;-77
2022/06/17 05:37:05;;;;;;;42.83;32.72;;;;;;;18.35;67.86;101979.91;4912656;28;119761;-78
2022/06/17 05:39:33;;;;;;;43.38;32.42;;;;;;;18.39;67.74;101983.25;4911996;28;120177;-78
2022/06/17 05:42:00;;;;;;;44.95;32.95;;;;;;;18.42;67.46;101984.31;4912896;28;119704;-79
2022/06/17 05:44:26;;;;;;;42.00;32.28;;;;;;;18.46;67.69;101979.38;4907255;28;119703;-80
2022/06/17 05:47:06;;;;;;;43.28;33.35;;;;;;;18.48;67.33;101982.44;4928543;28;120027;-80
2022/06/17 05:49:51;;;;;;;40.38;32.45;;;;;;;18.55;67.32;101989.66;4916257;28;119632;-78
2022/06/17 05:52:50;;;;;;;43.42;32.45;;;;;;;18.54;67.30;101974.22;4876894;28;122361;-80
2022/06/17 05:55:36;;;;;;;42.03;32.97;;;;;;;18.61;67.24;101982.19;4913613;28;119452;-79
2022/06/17 05:58:04;;;;;;;43.70;34.40;;;;;;;18.62;67.44;101980.94;4928650;28;119899;-79
2022/06/17 06:00:31;;;;;;;43.97;32.75;;;;;;;18.69;67.50;101986.16;4912030;28;120449;-79
2022/06/17 06:02:59;;;;;;;45.83;33.05;;;;;;;18.74;67.43;101979.19;4928458;28;119531;-79
2022/06/17 06:05:34;;;;;;;43.30;32.65;;;;;;;18.74;67.53;101976.41;4912449;28;121278;-79
2022/06/17 06:08:04;;;;;;;47.28;34.67;;;;;;;18.81;67.30;101979.59;4914061;28;120592;-79
2022/06/17 06:10:30;;;;;;;46.60;33.65;;;;;;;18.80;67.41;101980.06;4903664;28;119329;-80
2022/06/17 06:13:05;;;;;;;45.80;34.20;;;;;;;18.85;67.56;101976.63;4915311;28;121263;-79
2022/06/17 06:15:40;;;;;;;47.88;35.15;;;;;;;18.96;67.86;101974.06;4899449;28;119722;-79
2022/06/17 06:18:22;;;;;;;50.22;36.20;;;;;;;18.99;67.50;101976.66;4915241;28;119701;-78
2022/06/17 06:20:51;;;;;;;49.90;35.20;;;;;;;19.05;67.57;101981.53;4914763;28;120073;-78
2022/06/17 06:23:17;;;;;;;49.55;35.90;;;;;;;18.99;67.27;101962.75;4915011;28;119468;-78
2022/06/17 06:25:42;;;;;;;46.88;35.78;;;;;;;19.15;67.15;101980.94;4899380;28;121242;-79
2022/06/17 06:28:10;;;;;;;45.83;34.95;;;;;;;19.19;67.18;101984.34;4914896;28;119510;-78
2022/06/17 06:30:37;;;;;;;52.47;38.28;;;;;;;19.21;67.12;101981.84;4915529;28;119632;-79
2022/06/17 06:33:03;;;;;;;52.75;37.55;;;;;;;19.22;67.34;101983.38;4918770;28;119808;-79
2022/06/17 06:35:34;;;;;;;49.20;38.15;;;;;;;19.29;67.51;101980.19;4899203;28;119448;-79
2022/06/17 06:38:04;;;;;;;53.50;38.35;;;;;;;19.33;67.66;101974.44;4914819;28;119484;-78
2022/06/17 06:40:31;;;;;;;48.30;35.92;;;;;;;19.36;67.33;101979.03;4914605;28;120282;-80
2022/06/17 06:42:58;;;;;;;46.67;36.20;;;;;;;19.40;67.26;101976.06;4915298;28;119667;-79
2022/06/17 06:45:45;;;;;;;47.47;34.55;;;;;;;19.41;67.20;101975.59;4930987;28;120033;-78
2022/06/17 06:48:13;;;;;;;48.70;37.00;;;;;;;19.46;67.51;101983.28;4914935;28;119663;-79
2022/06/17 06:50:39;;;;;;;44.63;34.25;;;;;;;19.49;67.74;101975.97;4914576;28;119772;-78
2022/06/17 06:53:06;;;;;;;43.22;34.17;;;;;;;19.38;67.52;101962.63;4931347;28;119940;-80
2022/06/17 06:55:34;;;;;;;37.97;29.92;;;;;;;19.51;67.21;101977.03;4917719;28;121086;-77
2022/06/17 06:58:03;;;;;;;35.50;30.27;;;;;;;19.58;66.89;101973.88;4914983;28;119816;-78
2022/06/17 07:00:37;;;;;;;37.58;30.05;;;;;;;19.61;66.87;101972.91;4914759;28;119841;-80
2022/06/17 07:03:03;;;;;;;30.10;23.92;;;;;;;19.66;66.80;101974.25;4914695;28;119762;-79
2022/06/17 07:05:30;;;;;;;30.92;25.05;;;;;;;19.69;66.82;101978.09;4914463;28;119422;-79
2022/06/17 07:07:57;;;;;;;26.27;22.27;;;;;;;19.68;66.35;101963.41;4914577;28;120047;-79
2022/06/17 07:10:25;;;;;;;29.60;23.33;;;;;;;19.73;66.22;101965.50;4914722;28;119933;-78
2022/06/17 07:12:52;;;;;;;27.55;23.08;;;;;;;19.77;66.44;101960.50;4915686;28;119735;-78
2022/06/17 07:15:19;;;;;;;28.05;22.02;;;;;;;19.86;66.31;101959.59;4914011;28;119837;-79
2022/06/17 07:18:14;;;;;;;26.85;18.75;;;;;;;19.92;65.74;101963.25;4918646;28;119666;-79
2022/06/17 07:20:47;;;;;;;22.35;17.90;;;;;;;19.93;65.61;101954.41;4913677;28;119484;-77
2022/06/17 07:23:17;;;;;;;23.50;18.63;;;;;;;19.97;65.85;101964.56;4916152;28;119873;-78
2022/06/17 07:25:44;;;;;;;24.83;18.27;;;;;;;20.01;65.76;101963.13;4915484;28;119470;-80
2022/06/17 07:28:19;;;;;;;18.90;15.10;;;;;;;20.01;65.37;101954.75;4913574;28;120080;-80
2022/06/17 07:30:48;;;;;;;24.20;18.20;;;;;;;20.08;65.83;101962.69;4915377;28;120161;-79
2022/06/17 07:33:15;;;;;;;18.70;13.95;;;;;;;20.10;64.83;101960.19;4915129;28;119421;-78
2022/06/17 07:35:42;;;;;;;15.93;12.95;;;;;;;20.14;64.04;101965.59;4914827;28;120529;-80
2022/06/17 07:41:10;;;;;;;59.03;17.30;;;;;;;20.19;63.75;101950.97;4883732;28;121628;-78
2022/06/17 07:43:36;;;;;;;32.67;17.48;;;;;;;20.27;63.89;101951.28;4913619;28;119792;-79
2022/06/17 07:46:04;;;;;;;19.02;14.57;;;;;;;20.35;63.91;101952.44;4915282;28;119889;-78
2022/06/17 07:48:30;;;;;;;20.38;14.45;;;;;;;20.41;63.86;101942.13;4897418;28;121103;-80
2022/06/17 07:50:59;;;;;;;14.15;10.80;;;;;;;20.49;63.00;101946.78;4913366;28;120186;-79
2022/06/17 07:53:27;;;;;;;16.60;11.90;;;;;;;20.60;63.47;101948.19;4913904;28;119859;-80
2022/06/17 07:55:53;;;;;;;17.63;11.95;;;;;;;20.69;63.15;101940.41;4896621;28;120941;-79
2022/06/17 07:58:19;;;;;;;12.80;11.35;;;;;;;20.80;62.92;101934.19;4915194;28;119413;-80
2022/06/17 08:00:46;;;;;;;17.77;12.90;;;;;;;20.84;62.56;101932.72;4913914;28;120110;-79
2022/06/17 08:03:15;;;;;;;15.88;10.73;;;;;;;20.96;62.13;101938.41;4918219;28;119466;-80
2022/06/17 08:05:43;;;;;;;13.77;9.05;;;;;;;21.05;61.86;101946.59;4913982;28;120024;-80
2022/06/17 08:08:10;;;;;;;13.90;8.75;;;;;;;21.18;61.35;101952.56;4914323;28;120268;-80
2022/06/17 08:10:37;;;;;;;12.27;7.40;;;;;;;21.27;60.47;101935.66;4914633;28;119733;-79
2022/06/17 08:13:05;;;;;;;11.50;7.70;;;;;;;21.42;60.38;101944.66;4915069;28;120703;-80
2022/06/17 08:15:32;;;;;;;9.73;7.10;;;;;;;21.51;59.23;101938.13;4912785;28;119838;-79
2022/06/17 08:17:59;;;;;;;9.05;6.90;;;;;;;21.58;58.73;101928.53;4914386;28;119978;-80
2022/06/17 08:20:35;;;;;;;7.93;6.18;;;;;;;21.68;58.96;101930.63;4913400;28;119932;-79
2022/06/17 08:23:03;;;;;;;10.18;6.60;;;;;;;21.69;58.30;101936.97;4918597;28;119514;-80
2022/06/17 08:25:31;;;;;;;8.80;5.63;;;;;;;21.69;57.68;101931.41;4929206;28;119677;-79
2022/06/17 08:27:58;;;;;;;10.40;6.50;;;;;;;21.70;57.83;101939.28;4914127;28;119577;-80
2022/06/17 08:30:27;;;;;;;9.10;6.30;;;;;;;21.73;58.27;101932.69;4929125;28;119928;-79
2022/06/17 08:32:55;;;;;;;8.00;5.40;;;;;;;21.79;58.28;101940.38;4928888;28;119530;-79
2022/06/17 08:35:34;;;;;;;10.57;6.28;;;;;;;21.85;58.59;101950.28;4928614;28;119931;-79
2022/06/17 08:38:12;;;;;;;8.85;5.93;;;;;;;21.92;58.88;101933.06;4914472;28;120104;-80
2022/06/17 08:40:59;;;;;;;9.98;5.90;;;;;;;22.07;57.68;101940.53;4913279;28;119904;-80
2022/06/17 08:43:37;;;;;;;9.73;4.55;;;;;;;22.10;57.49;101942.31;4911926;28;119853;-80
2022/06/17 08:46:09;;;;;;;8.55;4.88;;;;;;;22.10;57.10;101953.50;4933006;28;119699;-80
2022/06/17 08:49:27;;;;;;;8.63;5.30;;;;;;;22.11;55.98;101952.25;4909469;28;119802;-79
2022/06/17 08:51:52;;;;;;;9.95;5.55;;;;;;;22.11;56.04;101944.63;4928665;28;119420;-78
2022/06/17 08:54:38;;;;;;;10.20;5.65;;;;;;;22.13;56.05;101941.31;4914041;28;119280;-79
2022/06/17 08:57:35;;;;;;;8.90;5.43;;;;;;;22.13;56.05;101949.69;4928572;28;122065;-78
2022/06/17 09:00:06;;;;;;;8.47;5.03;;;;;;;22.12;55.98;101940.56;4929315;28;120116;-79
2022/06/17 09:02:40;;;;;;;10.65;5.10;;;;;;;22.21;55.89;101936.78;4913023;28;119605;-80
2022/06/17 09:05:25;;;;;;;7.80;4.40;;;;;;;22.24;55.99;101938.56;4913849;28;119870;-80
2022/06/17 09:08:08;;;;;;;8.95;4.97;;;;;;;22.25;55.93;101924.13;4912382;28;119765;-79
2022/06/17 09:11:00;;;;;;;9.13;4.93;;;;;;;22.28;55.98;101937.09;4916102;28;119497;-78
2022/06/17 09:13:49;;;;;;;7.82;4.30;;;;;;;22.34;56.48;101946.25;4914262;28;119673;-80
2022/06/17 09:16:41;;;;;;;6.82;4.10;;;;;;;22.38;55.29;101943.19;4928876;28;119635;-80
2022/06/17 09:19:10;;;;;;;8.32;4.00;;;;;;;22.40;55.17;101932.28;4928044;28;120061;-79
2022/06/17 09:21:50;;;;;;;5.45;3.50;;;;;;;22.46;54.30;101941.44;4913586;28;119537;-79
2022/06/17 09:24:36;;;;;;;5.53;2.80;;;;;;;22.52;53.35;101938.69;4913367;28;119740;-79
2022/06/17 09:27:04;;;;;;;5.90;2.78;;;;;;;22.57;52.13;101933.09;4913198;28;119952;-80
2022/06/17 09:29:42;;;;;;;6.65;2.65;;;;;;;22.65;52.08;101936.94;4913518;28;119786;-80
2022/06/17 09:32:41;;;;;;;5.15;2.90;;;;;;;22.71;51.67;101934.13;4912133;28;119834;-80
2022/06/17 09:35:41;;;;;;;5.88;3.00;;;;;;;22.75;52.61;101923.50;4917265;28;120068;-79
2022/06/17 09:38:16;;;;;;;7.40;3.80;;;;;;;22.80;52.52;101927.56;4920569;28;120596;-80
2022/06/17 09:40:50;;;;;;;4.68;3.22;;;;;;;22.81;51.46;101927.06;4912073;28;120337;-79
2022/06/17 09:43:57;;;;;;;9.07;3.47;;;;;;;22.81;51.61;101923.50;4912093;28;120200;-79
2022/06/17 09:46:32;;;;;;;7.38;3.30;;;;;;;22.80;51.13;101919.16;4913707;28;120607;-78
2022/06/17 09:49:03;;;;;;;7.40;4.03;;;;;;;22.77;51.23;101903.41;4914261;28;121115;-79
2022/06/17 09:51:43;;;;;;;7.75;4.00;;;;;;;22.83;51.29;101912.59;4905724;28;120137;-80
2022/06/17 09:54:30;;;;;;;9.48;4.13;;;;;;;22.88;52.02;101920.22;4924930;28;119795;-81
2022/06/17 09:57:01;;;;;;;6.07;3.72;;;;;;;22.87;51.86;101910.28;4930883;28;120811;-80
2022/06/17 09:59:44;;;;;;;5.95;3.60;;;;;;;22.85;51.78;101918.44;4919438;28;119882;-80
2022/06/17 10:02:30;;;;;;;4.75;3.35;;;;;;;22.75;51.44;101898.31;4932277;28;120059;-80
2022/06/17 10:04:59;;;;;;;9.63;3.65;;;;;;;22.83;51.40;101916.13;4928473;28;119859;-80
2022/06/17 10:07:45;;;;;;;7.85;3.15;;;;;;;22.85;51.36;101915.63;4898944;28;120238;-80
2022/06/17 10:10:37;;;;;;;7.20;3.83;;;;;;;22.84;51.11;101916.91;4929300;28;120023;-80
2022/06/17 10:13:12;;;;;;;8.82;4.15;;;;;;;22.85;51.47;101915.63;4946855;28;119784;-79
2022/06/17 10:19:35;;;;;;;5.63;3.78;;;;;;;22.86;50.63;101917.16;4875305;28;122452;-80
2022/06/17 10:22:21;;;;;;;7.20;4.25;;;;;;;22.82;50.35;101911.81;4931618;28;120265;-80
2022/06/17 10:25:03;;;;;;;5.10;3.42;;;;;;;22.90;51.38;101912.84;4919520;28;120620;-81
2022/06/17 10:27:29;;;;;;;5.90;4.43;;;;;;;22.94;51.96;101923.78;4931407;28;119785;-80
2022/06/17 10:30:20;;;;;;;8.90;5.15;;;;;;;22.90;51.33;101909.28;4932183;28;120220;-80
2022/06/17 10:32:49;;;;;;;8.00;4.47;;;;;;;22.94;50.09;101921.75;4927998;28;120297;-80
2022/06/17 10:35:23;;;;;;;10.80;6.13;;;;;;;22.90;50.44;101917.66;4923080;28;120380;-80
2022/06/17 10:37:49;;;;;;;9.70;5.97;;;;;;;22.82;51.14;101911.06;4882235;28;1288649;-80
2022/06/17 10:40:17;;;;;;;15.63;6.75;;;;;;;22.87;50.63;101932.69;4914317;28;122611;-80
2022/06/17 10:42:46;;;;;;;18.70;8.35;;;;;;;22.84;51.01;101931.66;4929646;28;119876;-79
2022/06/17 10:45:16;;;;;;;10.82;6.00;;;;;;;22.79;50.73;101931.63;4933062;28;119833;-79
2022/06/17 10:47:59;;;;;;;9.07;5.43;;;;;;;22.77;50.83;101925.78;4925856;28;120180;-80
2022/06/17 10:50:35;;;;;;;10.13;5.20;;;;;;;22.65;51.05;101920.16;4927862;28;120515;-79
2022/06/17 10:53:13;;;;;;;9.52;5.47;;;;;;;22.71;50.04;101924.97;4927674;28;122489;-80
2022/06/17 10:55:49;;;;;;;9.48;4.85;;;;;;;22.63;50.45;101925.47;4930672;28;119792;-80
2022/06/17 10:58:24;;;;;;;9.40;5.22;;;;;;;22.64;50.22;101929.81;4929018;28;119534;-80
2022/06/17 11:00:53;;;;;;;8.00;5.60;;;;;;;22.60;50.62;101931.31;4930572;28;119643;-79
2022/06/17 11:03:24;;;;;;;7.05;4.13;;;;;;;22.56;51.02;101928.78;4927735;28;120419;-80
2022/06/17 11:05:56;;;;;;;10.23;4.40;;;;;;;22.52;50.44;101930.28;4927937;28;119740;-80
2022/06/17 11:08:34;;;;;;;8.40;4.30;;;;;;;22.45;50.47;101933.56;4933834;28;120172;-80
2022/06/17 11:13:52;;;;;;;7.45;3.72;;;;;;;22.42;51.34;101942.97;4926231;28;120177;-80
2022/06/17 11:16:22;;;;;;;13.32;4.93;;;;;;;22.40;50.44;101931.53;4927003;28;120340;-79
2022/06/17 11:19:13;;;;;;;7.00;5.10;;;;;;;22.34;50.47;101923.13;4930373;28;120237;-79
2022/06/17 11:21:49;;;;;;;9.10;4.68;;;;;;;22.40;50.55;101937.88;4927901;28;119925;-80
2022/06/17 11:24:40;;;;;;;8.95;5.70;;;;;;;22.40;50.82;101943.47;4927643;28;119842;-80
2022/06/17 11:27:27;;;;;;;9.32;5.20;;;;;;;22.40;51.68;101943.47;4929832;28;119796;-79
2022/06/17 11:29:55;;;;;;;12.05;5.07;;;;;;;22.43;51.78;101947.28;4929397;28;120354;-79
2022/06/17 11:32:20;;;;;;;9.63;4.97;;;;;;;22.43;51.34;101939.66;4930377;28;119730;-79
2022/06/17 11:34:58;;;;;;;9.20;4.75;;;;;;;22.44;50.87;101943.22;4928524;28;122836;-79
2022/06/17 11:37:32;;;;;;;8.30;4.82;;;;;;;22.44;51.95;101949.56;4931063;28;119822;-80
2022/06/17 11:40:18;;;;;;;8.23;4.55;;;;;;;22.46;51.50;101940.69;4928640;28;120166;-79
2022/06/17 11:42:57;;;;;;;11.75;4.65;;;;;;;22.35;50.87;101921.84;4927595;28;119767;-80
2022/06/17 11:45:31;;;;;;;9.95;4.47;;;;;;;22.45;51.03;101939.91;4926771;28;119940;-80
2022/06/17 11:48:01;;;;;;;9.57;5.38;;;;;;;22.44;51.95;101935.59;4930169;28;120332;-80
2022/06/17 11:50:42;;;;;;;9.70;6.20;;;;;;;22.47;52.14;101948.56;4943784;28;121648;-80
2022/06/17 11:53:14;;;;;;;8.25;5.43;;;;;;;22.46;52.24;101937.88;4924547;28;120023;-79
2022/06/17 11:55:43;;;;;;;8.20;5.70;;;;;;;22.48;52.58;101938.16;4929670;28;119844;-80